Time;durP1;ratioP1;P1;durP2;ratioP2;P2;SDS_P1;SDS_P2;PMS_P1;PMS_P2;Temp;Humidity;BMP_temperature;BMP_pressure;BME280_temperature;BME280_humidity;BME280_pressure;Samples;Min_cycle;Max_cycle;Signal;HPM_P1;HPM_P2
2021/12/21 00:00:51;;;;;;;14.00;5.70;;;3.40;99.90;;;;;;5017887;28;20025;-89
2021/12/21 00:03:17;;;;;;;22.93;6.63;;;3.30;99.90;;;;;;5034345;28;20025;-89
2021/12/21 00:05:44;;;;;;;17.37;6.73;;;3.30;99.90;;;;;;5034330;28;20033;-89
2021/12/21 00:08:12;;;;;;;21.87;8.70;;;3.30;99.90;;;;;;5033875;28;20021;-88
2021/12/21 00:10:42;;;;;;;19.03;7.03;;;3.20;99.90;;;;;;5034373;28;20119;-88
2021/12/21 00:13:20;;;;;;;17.90;7.03;;;3.20;99.90;;;;;;5017520;28;20132;-89
2021/12/21 00:21:36;;;;;;;15.37;6.57;;;3.10;99.90;;;;;;5044463;28;20033;-88
2021/12/21 00:24:10;;;;;;;16.73;6.10;;;3.00;99.90;;;;;;5016844;28;20040;-88
2021/12/21 00:26:37;;;;;;;16.90;6.40;;;3.00;99.90;;;;;;5017298;28;20403;-88
2021/12/21 00:29:03;;;;;;;16.30;6.40;;;3.00;99.90;;;;;;5033460;28;20029;-88
2021/12/21 00:31:34;;;;;;;18.20;6.53;;;3.00;99.90;;;;;;5017154;28;20047;-89
2021/12/21 00:34:01;;;;;;;16.43;6.30;;;2.90;99.90;;;;;;5017335;28;20037;-88
2021/12/21 00:36:29;;;;;;;19.40;6.57;;;2.90;99.90;;;;;;5017670;28;20036;-88
2021/12/21 00:38:56;;;;;;;18.00;6.63;;;3.00;99.90;;;;;;5033624;28;20136;-89
2021/12/21 00:41:24;;;;;;;14.47;6.73;;;2.90;99.90;;;;;;5017533;28;20033;-88
2021/12/21 00:43:51;;;;;;;16.87;6.80;;;3.00;99.90;;;;;;5017546;28;20426;-88
2021/12/21 00:46:17;;;;;;;17.77;6.90;;;3.00;99.90;;;;;;5017495;28;20029;-88
2021/12/21 00:48:56;;;;;;;18.97;7.37;;;3.00;99.90;;;;;;5033980;28;20086;-90
2021/12/21 00:51:25;;;;;;;16.10;7.35;;;2.90;99.90;;;;;;5033637;28;20025;-89
2021/12/21 00:53:51;;;;;;;18.23;6.13;;;2.90;99.90;;;;;;5016286;28;20411;-88
2021/12/21 00:56:17;;;;;;;17.50;6.50;;;2.90;99.90;;;;;;5016494;28;20029;-88
2021/12/21 00:58:43;;;;;;;18.20;6.87;;;2.80;99.90;;;;;;5016365;28;20079;-88
2021/12/21 01:01:09;;;;;;;18.43;6.53;;;2.80;99.90;;;;;;5016283;28;20025;-89
2021/12/21 01:03:38;;;;;;;14.97;6.57;;;2.80;99.90;;;;;;5033449;28;20116;-89
2021/12/21 01:06:14;;;;;;;15.98;6.82;;;2.90;99.90;;;;;;5016349;28;20032;-88
2021/12/21 01:08:58;;;;;;;20.20;7.20;;;2.90;99.90;;;;;;5016549;28;20106;-88
2021/12/21 01:11:32;;;;;;;14.83;6.13;;;2.90;99.90;;;;;;5032933;28;20582;-88
2021/12/21 01:16:57;;;;;;;14.30;5.73;;;2.90;99.90;;;;;;5013303;28;20476;-88
2021/12/21 01:19:31;;;;;;;17.27;6.67;;;2.90;99.90;;;;;;4995715;28;20033;-89
2021/12/21 01:22:06;;;;;;;18.43;6.77;;;2.90;99.90;;;;;;5012963;28;20060;-89
2021/12/21 01:27:31;;;;;;;18.53;6.90;;;2.80;99.90;;;;;;5013386;28;20618;-88
2021/12/21 01:35:43;;;;;;;16.20;6.40;;;2.80;99.90;;;;;;4984409;28;20087;-89
2021/12/21 01:38:25;;;;;;;15.70;6.37;;;2.80;99.90;;;;;;5017090;28;20030;-89
2021/12/21 01:40:59;;;;;;;15.17;6.17;;;2.80;99.90;;;;;;5016700;28;20041;-89
2021/12/21 01:44:07;;;;;;;17.03;7.17;;;2.80;99.90;;;;;;5000460;28;20052;-88
2021/12/21 01:51:45;;;;;;;21.80;7.53;;;2.50;99.90;;;;;;5016566;28;20034;-88
2021/12/21 01:54:10;;;;;;;19.13;6.80;;;2.40;99.90;;;;;;5000721;28;20496;-88
2021/12/21 01:56:37;;;;;;;19.07;6.63;;;2.30;99.90;;;;;;5000767;28;20074;-87
2021/12/21 01:59:03;;;;;;;13.97;6.53;;;2.40;99.90;;;;;;5000398;28;20468;-88
2021/12/21 02:01:29;;;;;;;16.67;6.93;;;2.40;99.90;;;;;;5000907;28;20040;-88
2021/12/21 02:03:55;;;;;;;16.60;6.87;;;2.40;99.90;;;;;;5000867;28;20080;-88
2021/12/21 02:06:25;;;;;;;18.90;6.57;;;2.40;99.90;;;;;;5000502;28;20439;-89
2021/12/21 02:08:52;;;;;;;16.83;7.17;;;2.30;99.90;;;;;;5016733;28;20036;-89
2021/12/21 02:11:19;;;;;;;17.37;6.73;;;2.30;99.90;;;;;;5000812;28;20033;-88
2021/12/21 02:13:48;;;;;;;15.40;6.30;;;2.30;99.90;;;;;;5000535;28;20064;-88
2021/12/21 02:16:21;;;;;;;17.48;6.57;;;2.30;99.90;;;;;;5017399;28;20056;-88
2021/12/21 02:23:42;;;;;;;13.73;6.50;;;2.20;99.90;;;;;;5016621;28;20069;-88
2021/12/21 02:26:21;;;;;;;18.70;6.97;;;2.20;99.90;;;;;;5000521;28;20033;-88
2021/12/21 02:31:31;;;;;;;15.90;7.00;;;2.20;99.90;;;;;;5016702;28;20091;-88
2021/12/21 02:33:57;;;;;;;15.73;6.63;;;2.10;99.90;;;;;;5000164;28;20455;-88
2021/12/21 02:36:23;;;;;;;15.07;6.77;;;2.00;99.90;;;;;;5000385;28;20037;-88
2021/12/21 02:38:50;;;;;;;13.73;7.60;;;2.00;99.90;;;;;;4999828;28;20053;-88
2021/12/21 02:41:16;;;;;;;21.47;7.37;;;2.00;99.90;;;;;;4999769;28;20048;-88
2021/12/21 02:43:42;;;;;;;18.47;6.63;;;2.00;99.90;;;;;;4999414;28;20026;-89
2021/12/21 02:46:08;;;;;;;15.43;6.67;;;1.90;99.90;;;;;;4999372;28;20123;-89
2021/12/21 02:48:34;;;;;;;17.40;7.00;;;1.90;99.90;;;;;;4999640;28;20137;-89
2021/12/21 02:51:01;;;;;;;17.37;7.07;;;1.80;99.90;;;;;;5015904;28;20083;-88
2021/12/21 02:53:27;;;;;;;16.43;7.30;;;1.90;99.90;;;;;;4999568;28;20037;-88
2021/12/21 02:55:52;;;;;;;16.43;6.63;;;2.00;99.90;;;;;;4999009;28;20114;-89
2021/12/21 02:58:18;;;;;;;18.90;6.90;;;1.80;99.90;;;;;;5033584;28;20496;-87
2021/12/21 03:00:46;;;;;;;19.23;7.07;;;1.80;99.90;;;;;;5015825;28;20025;-88
2021/12/21 03:03:14;;;;;;;19.10;7.57;;;1.70;99.90;;;;;;5015456;28;20545;-88
2021/12/21 03:05:49;;;;;;;15.90;7.07;;;1.70;99.90;;;;;;5015322;28;20029;-89
2021/12/21 03:08:25;;;;;;;19.90;7.20;;;1.70;99.90;;;;;;4998788;28;20038;-88
2021/12/21 03:11:36;;;;;;;24.03;7.43;;;1.80;99.90;;;;;;4998830;28;20030;-89
2021/12/21 03:14:03;;;;;;;15.27;6.67;;;1.80;99.90;;;;;;5014066;28;20044;-88
2021/12/21 03:16:30;;;;;;;14.67;6.83;;;1.70;99.90;;;;;;4999192;28;20652;-88
2021/12/21 03:18:57;;;;;;;16.87;6.90;;;1.60;99.90;;;;;;4998444;28;20464;-89
2021/12/21 03:21:23;;;;;;;15.50;6.97;;;1.60;99.90;;;;;;4998940;28;20033;-89
2021/12/21 03:23:49;;;;;;;15.70;7.70;;;1.60;99.90;;;;;;4998339;28;20524;-89
2021/12/21 03:26:14;;;;;;;16.57;6.93;;;1.60;99.90;;;;;;4998487;28;20067;-88
2021/12/21 03:28:40;;;;;;;18.17;7.40;;;1.60;99.90;;;;;;4998540;28;20136;-88
2021/12/21 03:31:06;;;;;;;16.27;7.33;;;1.60;99.90;;;;;;5015242;28;20061;-89
2021/12/21 03:33:33;;;;;;;20.70;7.83;;;1.50;99.90;;;;;;5015704;28;20488;-89
2021/12/21 03:36:01;;;;;;;17.63;7.50;;;1.50;99.90;;;;;;5016550;28;20120;-88
2021/12/21 03:38:27;;;;;;;17.83;7.13;;;1.50;99.90;;;;;;5000260;28;20045;-88
2021/12/21 03:41:00;;;;;;;18.90;7.10;;;1.50;99.90;;;;;;4999767;28;20129;-88
2021/12/21 03:43:29;;;;;;;19.80;7.37;;;1.40;99.90;;;;;;5016427;28;20025;-89
2021/12/21 03:46:03;;;;;;;17.80;6.80;;;1.40;99.90;;;;;;4999054;28;20049;-89
2021/12/21 03:48:28;;;;;;;17.43;6.87;;;1.40;99.90;;;;;;4998298;28;20113;-88
2021/12/21 03:50:54;;;;;;;16.40;6.80;;;1.40;99.90;;;;;;4998081;28;20116;-88
2021/12/21 03:53:20;;;;;;;17.63;6.87;;;1.40;99.90;;;;;;4998195;28;20056;-89
2021/12/21 03:55:46;;;;;;;16.53;6.87;;;1.40;99.90;;;;;;5013459;28;20044;-88
2021/12/21 03:58:12;;;;;;;14.77;6.50;;;1.40;99.90;;;;;;5013695;28;20040;-88
2021/12/21 04:00:37;;;;;;;15.27;6.73;;;1.30;99.90;;;;;;4997776;28;20025;-88
2021/12/21 04:03:03;;;;;;;17.63;6.60;;;1.40;99.90;;;;;;4998039;28;20029;-87
2021/12/21 04:05:29;;;;;;;14.17;6.73;;;1.40;99.90;;;;;;4997829;28;20025;-89
2021/12/21 04:07:54;;;;;;;14.87;6.77;;;1.40;99.90;;;;;;4997899;28;20033;-89
2021/12/21 04:10:20;;;;;;;15.43;7.33;;;1.40;99.90;;;;;;4997905;28;20033;-88
2021/12/21 04:12:46;;;;;;;16.27;7.67;;;1.40;99.90;;;;;;4998022;28;20038;-88
2021/12/21 04:15:13;;;;;;;17.70;7.13;;;1.40;99.90;;;;;;5014143;28;20063;-88
2021/12/21 04:17:40;;;;;;;16.87;7.53;;;1.30;99.90;;;;;;4997754;28;20060;-89
2021/12/21 04:20:06;;;;;;;20.43;8.30;;;1.40;99.90;;;;;;5014109;28;20032;-88
2021/12/21 04:22:32;;;;;;;19.27;7.67;;;1.40;99.90;;;;;;4997719;28;20033;-89
2021/12/21 04:24:57;;;;;;;17.63;7.40;;;1.30;99.90;;;;;;5013948;28;20083;-88
2021/12/21 04:27:23;;;;;;;15.40;7.43;;;1.30;99.90;;;;;;5031710;28;20034;-88
2021/12/21 04:29:49;;;;;;;16.27;6.93;;;1.30;99.90;;;;;;4997236;28;20064;-89
2021/12/21 04:32:15;;;;;;;16.57;7.10;;;1.30;99.90;;;;;;4997291;28;20048;-89
2021/12/21 04:34:43;;;;;;;20.27;8.30;;;1.20;99.90;;;;;;4997364;28;20478;-88
2021/12/21 04:37:09;;;;;;;18.00;8.37;;;1.20;99.90;;;;;;4997291;28;20039;-86
2021/12/21 04:39:46;;;;;;;15.50;7.57;;;1.40;99.90;;;;;;5012995;28;20037;-85
2021/12/21 04:42:11;;;;;;;17.77;7.43;;;1.40;99.90;;;;;;5013671;28;20044;-85
2021/12/21 04:44:37;;;;;;;17.77;7.87;;;1.40;99.90;;;;;;5032969;28;20025;-85
2021/12/21 04:47:03;;;;;;;20.17;8.67;;;1.40;99.90;;;;;;5051249;28;20021;-85
2021/12/21 04:49:29;;;;;;;19.73;9.47;;;1.40;99.90;;;;;;5016183;28;20040;-85
2021/12/21 04:51:55;;;;;;;22.03;9.37;;;1.40;99.90;;;;;;5033073;28;20032;-88
2021/12/21 04:54:20;;;;;;;17.50;8.77;;;1.50;99.90;;;;;;5016721;28;20032;-85
2021/12/21 04:56:46;;;;;;;20.10;8.63;;;1.50;99.90;;;;;;5016493;28;20036;-85
2021/12/21 04:59:12;;;;;;;18.07;8.47;;;1.50;99.90;;;;;;4998171;28;20416;-84
2021/12/21 05:01:38;;;;;;;20.77;9.23;;;1.60;99.90;;;;;;4996723;28;20030;-86
2021/12/21 05:04:03;;;;;;;20.83;9.33;;;1.50;99.90;;;;;;5013119;28;20025;-85
2021/12/21 05:06:30;;;;;;;18.70;8.60;;;1.50;99.90;;;;;;4997216;28;20044;-86
2021/12/21 05:09:11;;;;;;;18.57;8.60;;;1.40;99.90;;;;;;5030295;28;20060;-85
2021/12/21 05:11:37;;;;;;;18.93;9.13;;;1.30;99.90;;;;;;4996528;28;20079;-86
2021/12/21 05:14:09;;;;;;;21.13;9.57;;;1.30;99.90;;;;;;4996521;28;20061;-86
2021/12/21 05:16:35;;;;;;;23.63;10.30;;;1.50;99.90;;;;;;4996645;28;20727;-86
2021/12/21 05:19:01;;;;;;;20.67;9.07;;;1.50;99.90;;;;;;4996106;28;20025;-85
2021/12/21 05:21:27;;;;;;;19.70;8.87;;;1.50;99.90;;;;;;5012969;28;20025;-85
2021/12/21 05:23:52;;;;;;;21.93;9.33;;;1.50;99.90;;;;;;4996343;28;20030;-87
2021/12/21 05:26:18;;;;;;;20.73;8.83;;;1.50;99.90;;;;;;4996789;28;20083;-85
2021/12/21 05:28:44;;;;;;;21.30;9.20;;;1.60;99.90;;;;;;5002780;28;20041;-85
2021/12/21 05:31:09;;;;;;;21.93;9.63;;;1.50;99.90;;;;;;5015949;28;20036;-85
2021/12/21 05:33:35;;;;;;;21.83;9.43;;;1.50;99.90;;;;;;5032737;28;20460;-86
2021/12/21 05:36:01;;;;;;;17.67;9.57;;;1.40;99.90;;;;;;5016084;28;20064;-86
2021/12/21 05:38:33;;;;;;;21.40;9.70;;;1.30;99.90;;;;;;5015834;28;20119;-85
2021/12/21 05:41:03;;;;;;;16.73;8.50;;;1.40;99.90;;;;;;5032188;28;20028;-85
2021/12/21 05:43:29;;;;;;;19.25;9.75;;;1.30;99.90;;;;;;5032498;28;20395;-85
2021/12/21 05:45:55;;;;;;;22.53;9.77;;;1.30;99.90;;;;;;5032505;28;20033;-85
2021/12/21 05:48:20;;;;;;;22.20;10.10;;;1.30;99.90;;;;;;5032113;28;20029;-86
2021/12/21 05:50:46;;;;;;;22.00;9.10;;;1.30;99.90;;;;;;5015689;28;20036;-85
2021/12/21 05:53:12;;;;;;;20.87;9.50;;;1.30;99.90;;;;;;5016431;28;20041;-85
2021/12/21 05:55:39;;;;;;;19.67;9.83;;;1.20;99.90;;;;;;5032266;28;20029;-85
2021/12/21 05:58:05;;;;;;;20.60;8.80;;;1.30;99.90;;;;;;5015477;28;20107;-86
2021/12/21 06:00:34;;;;;;;22.50;10.17;;;1.30;99.90;;;;;;5032265;28;20033;-86
2021/12/21 06:03:01;;;;;;;20.53;9.23;;;1.30;99.90;;;;;;5032638;28;20057;-86
2021/12/21 06:05:27;;;;;;;19.10;9.00;;;1.20;99.90;;;;;;5050259;28;20025;-87
2021/12/21 06:07:54;;;;;;;18.60;9.10;;;1.20;99.90;;;;;;5032048;28;20131;-86
2021/12/21 06:10:42;;;;;;;20.80;9.23;;;1.20;99.90;;;;;;5032400;28;20355;-88
2021/12/21 06:26:37;;;;;;;18.63;8.60;;;1.00;99.90;;;;;;5035914;28;20036;-85
2021/12/21 06:29:03;;;;;;;18.03;8.53;;;1.00;99.90;;;;;;5035138;28;20033;-86
2021/12/21 06:31:29;;;;;;;19.50;8.60;;;1.00;99.90;;;;;;5019184;28;20568;-86
2021/12/21 06:33:55;;;;;;;22.87;9.47;;;1.00;99.90;;;;;;5018987;28;20037;-86
2021/12/21 06:36:21;;;;;;;21.17;8.47;;;1.00;99.90;;;;;;5035569;28;20415;-86
2021/12/21 06:38:46;;;;;;;17.20;8.90;;;1.00;99.90;;;;;;5018446;28;20059;-86
2021/12/21 06:41:12;;;;;;;14.93;8.03;;;1.10;99.90;;;;;;5035403;28;20086;-85
2021/12/21 06:43:39;;;;;;;18.50;8.90;;;1.20;99.90;;;;;;5035446;28;20549;-85
2021/12/21 06:55:15;;;;;;;20.57;8.73;;;1.20;99.90;;;;;;5055847;28;20083;-87
2021/12/21 06:57:43;;;;;;;21.50;9.25;;;1.00;99.90;;;;;;5035679;28;20082;-87
2021/12/21 07:00:13;;;;;;;17.23;8.50;;;1.00;99.90;;;;;;5018662;28;20033;-87
2021/12/21 07:02:39;;;;;;;18.83;8.60;;;0.90;99.90;;;;;;5035448;28;20025;-88
2021/12/21 07:05:06;;;;;;;19.00;8.50;;;1.00;99.90;;;;;;5035617;28;20044;-87
2021/12/21 07:07:32;;;;;;;21.50;9.50;;;0.90;99.90;;;;;;5034941;28;20071;-86
2021/12/21 07:10:04;;;;;;;18.97;8.57;;;0.90;99.90;;;;;;5018253;28;20056;-87
2021/12/21 07:20:33;;;;;;;17.10;7.43;;;0.90;99.90;;;;;;5036317;28;20028;-87
2021/12/21 07:22:59;;;;;;;16.40;8.00;;;0.90;99.90;;;;;;5035291;28;20171;-86
2021/12/21 07:25:25;;;;;;;16.13;7.93;;;1.00;99.90;;;;;;5016471;28;20128;-86
2021/12/21 07:27:52;;;;;;;17.43;7.73;;;1.00;99.90;;;;;;5034114;28;20539;-88
2021/12/21 07:30:18;;;;;;;17.50;7.87;;;0.90;99.90;;;;;;5021123;28;20187;-89
2021/12/21 07:32:43;;;;;;;19.90;8.67;;;0.90;99.90;;;;;;5035382;28;20079;-88
2021/12/21 07:35:09;;;;;;;17.57;8.13;;;1.00;99.90;;;;;;5018442;28;20037;-88
2021/12/21 07:37:35;;;;;;;18.63;7.93;;;0.90;99.90;;;;;;5034494;28;20081;-86
2021/12/21 07:40:03;;;;;;;15.33;8.07;;;0.90;99.90;;;;;;4998532;28;20033;-87
2021/12/21 07:42:29;;;;;;;17.80;7.93;;;0.90;99.90;;;;;;4998187;28;20092;-89
2021/12/21 07:44:55;;;;;;;18.33;7.83;;;0.80;99.90;;;;;;4998471;28;20392;-89
2021/12/21 07:47:22;;;;;;;21.87;9.10;;;0.90;99.90;;;;;;4998827;28;20036;-88
2021/12/21 07:49:48;;;;;;;15.30;7.73;;;1.00;99.90;;;;;;4998404;28;20096;-89
2021/12/21 07:52:15;;;;;;;18.27;8.47;;;1.10;99.90;;;;;;4998455;28;20041;-89
2021/12/21 07:54:41;;;;;;;17.37;7.70;;;1.10;99.90;;;;;;5032469;28;20490;-87
2021/12/21 07:57:07;;;;;;;16.20;7.60;;;1.20;99.90;;;;;;5014788;28;20124;-89
2021/12/21 07:59:34;;;;;;;17.77;7.67;;;1.20;99.90;;;;;;4997942;28;20029;-90
2021/12/21 08:02:00;;;;;;;17.90;7.53;;;1.20;99.90;;;;;;4998572;28;20469;-87
2021/12/21 08:04:28;;;;;;;16.20;8.27;;;1.20;99.90;;;;;;5014382;28;20040;-86
2021/12/21 08:06:57;;;;;;;18.10;8.03;;;1.20;99.90;;;;;;4998029;28;20083;-86
2021/12/21 08:09:26;;;;;;;19.50;8.00;;;1.10;99.90;;;;;;5014207;28;20049;-88
2021/12/21 08:12:13;;;;;;;22.92;8.55;;;1.00;99.90;;;;;;4998534;28;20488;-87
2021/12/21 08:14:39;;;;;;;15.23;8.50;;;1.00;99.90;;;;;;5016951;28;20033;-85
2021/12/21 08:17:05;;;;;;;17.23;8.03;;;0.90;99.90;;;;;;5003121;28;20038;-84
2021/12/21 08:19:30;;;;;;;18.23;8.23;;;0.90;99.90;;;;;;5017891;28;20453;-85
2021/12/21 08:21:56;;;;;;;18.17;8.50;;;1.00;99.90;;;;;;5014259;28;20034;-85
2021/12/21 08:24:22;;;;;;;16.40;8.47;;;1.00;99.90;;;;;;4997485;28;20071;-88
2021/12/21 08:26:48;;;;;;;20.23;8.23;;;1.00;99.90;;;;;;5014832;28;20634;-86
2021/12/21 08:29:13;;;;;;;20.40;8.37;;;1.10;99.90;;;;;;4997001;28;20044;-86
2021/12/21 08:31:39;;;;;;;15.63;7.90;;;1.20;99.90;;;;;;4997562;28;20029;-87
2021/12/21 08:34:05;;;;;;;18.60;8.03;;;1.20;99.90;;;;;;5013942;28;20053;-87
2021/12/21 08:36:31;;;;;;;16.80;8.40;;;1.20;99.90;;;;;;4997756;28;20076;-87
2021/12/21 08:38:57;;;;;;;18.73;8.40;;;1.20;99.90;;;;;;4996983;28;20021;-87
2021/12/21 08:41:24;;;;;;;22.33;8.93;;;1.10;99.90;;;;;;4997076;28;20025;-86
2021/12/21 08:43:51;;;;;;;16.87;8.40;;;1.20;99.90;;;;;;4997262;28;20049;-83
2021/12/21 08:46:17;;;;;;;21.03;8.23;;;1.20;99.90;;;;;;4997827;28;20116;-86
2021/12/21 08:48:43;;;;;;;17.43;8.57;;;1.20;99.90;;;;;;4997797;28;20128;-85
2021/12/21 08:51:09;;;;;;;20.60;9.03;;;1.20;99.90;;;;;;4996861;28;20037;-86
2021/12/21 08:53:37;;;;;;;16.23;8.20;;;1.20;99.90;;;;;;5013317;28;20044;-87
2021/12/21 08:56:03;;;;;;;19.73;8.17;;;1.20;99.90;;;;;;5013251;28;20140;-87
2021/12/21 08:58:28;;;;;;;21.43;8.83;;;1.30;99.90;;;;;;5013044;28;20017;-87
2021/12/21 09:00:54;;;;;;;16.00;8.23;;;1.30;99.90;;;;;;4996679;28;20033;-88
2021/12/21 09:03:21;;;;;;;18.13;8.47;;;1.40;99.90;;;;;;4997171;28;20030;-87
2021/12/21 09:05:47;;;;;;;20.53;8.87;;;1.40;99.90;;;;;;4996810;28;20026;-87
2021/12/21 09:08:13;;;;;;;16.33;8.13;;;1.40;99.90;;;;;;5013391;28;20099;-87
2021/12/21 09:10:40;;;;;;;19.37;8.40;;;1.50;99.90;;;;;;4996586;28;20041;-87
2021/12/21 09:13:10;;;;;;;18.03;8.80;;;1.60;99.90;;;;;;5013388;28;20449;-88
2021/12/21 09:15:36;;;;;;;21.90;9.33;;;1.60;99.90;;;;;;5013643;28;20029;-87
2021/12/21 09:18:02;;;;;;;15.20;8.60;;;1.50;99.90;;;;;;4997105;28;20041;-89
2021/12/21 09:20:30;;;;;;;23.97;9.50;;;1.60;99.90;;;;;;4997079;28;20030;-92
2021/12/21 09:22:56;;;;;;;17.60;8.50;;;1.70;99.90;;;;;;4998716;28;20029;-87
2021/12/21 09:25:26;;;;;;;16.83;8.73;;;1.70;99.90;;;;;;5003637;28;20033;-92
2021/12/21 09:27:53;;;;;;;16.50;8.70;;;1.80;99.90;;;;;;4998860;28;20113;-86
2021/12/21 09:30:21;;;;;;;21.67;9.47;;;1.80;99.90;;;;;;4996859;28;20067;-89
2021/12/21 09:32:47;;;;;;;17.50;8.50;;;1.90;99.90;;;;;;4998927;28;20036;-88
2021/12/21 09:35:13;;;;;;;18.83;8.90;;;1.90;99.90;;;;;;4999663;28;20124;-90
2021/12/21 09:37:39;;;;;;;16.77;8.20;;;2.00;99.90;;;;;;4995829;28;20108;-88
2021/12/21 09:40:15;;;;;;;20.67;8.77;;;2.00;99.90;;;;;;5016513;28;20048;-88
2021/12/21 09:42:42;;;;;;;17.50;8.77;;;2.00;99.90;;;;;;4999091;28;20030;-86
2021/12/21 09:45:08;;;;;;;19.10;9.10;;;2.10;99.90;;;;;;5030462;28;20028;-86
2021/12/21 09:47:33;;;;;;;17.23;9.57;;;2.10;99.90;;;;;;4996723;28;20384;-86
2021/12/21 09:50:00;;;;;;;19.13;8.90;;;2.10;99.90;;;;;;4996785;28;20033;-86
2021/12/21 09:52:30;;;;;;;17.47;9.00;;;2.20;99.90;;;;;;4997681;28;20033;-85
2021/12/21 09:55:06;;;;;;;22.23;9.40;;;2.30;99.90;;;;;;5016193;28;20037;-85
2021/12/21 09:57:31;;;;;;;20.67;9.77;;;2.20;99.90;;;;;;5001483;28;20034;-86
2021/12/21 10:00:00;;;;;;;22.03;9.37;;;2.20;99.90;;;;;;5001381;28;20074;-88
2021/12/21 10:02:29;;;;;;;23.60;9.10;;;2.30;99.90;;;;;;5019175;28;20029;-91
2021/12/21 10:05:02;;;;;;;20.63;9.50;;;2.30;99.90;;;;;;4978236;28;20152;-87
2021/12/21 10:07:28;;;;;;;22.97;9.80;;;2.40;99.90;;;;;;5010802;28;20125;-86
2021/12/21 10:10:15;;;;;;;18.67;9.50;;;2.30;99.90;;;;;;5025692;28;20064;-87
2021/12/21 10:12:43;;;;;;;18.20;9.63;;;2.40;99.90;;;;;;5027041;28;20090;-88
2021/12/21 10:15:23;;;;;;;24.73;9.43;;;2.50;99.90;;;;;;5003419;28;20128;-89
2021/12/21 10:17:57;;;;;;;23.83;10.43;;;2.40;99.90;;;;;;5001126;28;20029;-89
2021/12/21 10:20:37;;;;;;;23.30;10.10;;;2.30;99.90;;;;;;5001312;28;20044;-86
2021/12/21 10:23:25;;;;;;;21.27;9.87;;;2.40;99.90;;;;;;5001341;28;20035;-86
2021/12/21 10:26:01;;;;;;;21.57;10.60;;;2.50;99.90;;;;;;4998348;28;20035;-86
2021/12/21 10:28:38;;;;;;;24.70;9.80;;;2.40;99.90;;;;;;5002080;28;20032;-86
2021/12/21 10:31:36;;;;;;;20.13;9.77;;;2.50;99.90;;;;;;5022372;28;20478;-88
2021/12/21 10:34:06;;;;;;;20.03;10.30;;;2.50;99.90;;;;;;5001652;28;20132;-89
2021/12/21 10:36:39;;;;;;;;;;;2.60;99.90;;;;;;5018722;28;20499;-88
2021/12/21 10:39:05;;;;;;;24.37;10.37;;;2.60;99.90;;;;;;5017859;28;19912;-88
2021/12/21 10:41:36;;;;;;;22.33;10.17;;;2.60;99.90;;;;;;5001658;28;20483;-90
2021/12/21 10:44:05;;;;;;;23.50;10.50;;;2.70;99.90;;;;;;5002094;28;20029;-90
2021/12/21 10:46:34;;;;;;;21.80;10.30;;;2.70;99.90;;;;;;5016576;28;20025;-91
2021/12/21 10:49:23;;;;;;;24.00;10.97;;;2.70;99.90;;;;;;4999111;28;20033;-90
2021/12/21 10:51:57;;;;;;;18.67;9.47;;;2.80;99.90;;;;;;4999491;28;20052;-90
2021/12/21 10:54:50;;;;;;;20.20;10.07;;;2.90;99.90;;;;;;5015683;28;20084;-90
2021/12/21 10:57:29;;;;;;;22.97;10.47;;;2.90;99.90;;;;;;5029086;28;20038;-90
2021/12/21 11:00:00;;;;;;;19.55;9.90;;;3.00;99.90;;;;;;4999341;28;20053;-91
2021/12/21 11:02:32;;;;;;;18.80;9.33;;;2.90;99.90;;;;;;5001264;28;20096;-91
2021/12/21 11:05:06;;;;;;;24.03;9.80;;;3.00;99.90;;;;;;5000915;28;20078;-90
2021/12/21 11:07:45;;;;;;;21.77;10.20;;;3.00;99.90;;;;;;5000585;28;20400;-91
2021/12/21 11:10:25;;;;;;;;;;;3.00;99.90;;;;;;5017518;28;20034;-90
2021/12/21 11:12:57;;;;;;;19.48;9.10;;;3.10;99.90;;;;;;5000709;28;19916;-91
2021/12/21 11:15:30;;;;;;;17.90;8.53;;;3.10;99.90;;;;;;5000639;28;20033;-91
2021/12/21 11:17:59;;;;;;;16.60;8.80;;;3.20;99.90;;;;;;5000251;28;20029;-90
2021/12/21 11:20:26;;;;;;;17.10;8.57;;;3.20;99.90;;;;;;5000494;28;20454;-91
2021/12/21 11:22:53;;;;;;;20.23;9.07;;;3.20;99.90;;;;;;5016802;28;20038;-90
2021/12/21 11:25:19;;;;;;;17.57;9.10;;;3.30;99.90;;;;;;5016670;28;20033;-91
2021/12/21 11:27:47;;;;;;;18.93;8.47;;;3.30;99.90;;;;;;5000622;28;20041;-91
2021/12/21 11:30:22;;;;;;;20.67;9.57;;;3.40;99.90;;;;;;5000956;28;20049;-91
2021/12/21 11:32:50;;;;;;;21.30;9.13;;;3.40;99.90;;;;;;5001987;28;20033;-90
2021/12/21 11:37:57;;;;;;;15.70;8.20;;;3.50;99.90;;;;;;5032666;28;20037;-90
2021/12/21 11:40:32;;;;;;;15.27;7.70;;;3.50;99.90;;;;;;5030723;28;20086;-90
2021/12/21 11:43:22;;;;;;;17.57;6.50;;;3.60;99.90;;;;;;5027630;28;20052;-90
2021/12/21 11:45:54;;;;;;;16.03;7.33;;;3.60;99.90;;;;;;5006017;28;20055;-90
2021/12/21 11:48:42;;;;;;;14.80;7.30;;;3.70;99.90;;;;;;5006018;28;20038;-90
2021/12/21 11:51:11;;;;;;;18.37;7.70;;;3.70;99.90;;;;;;5012244;28;20530;-91
2021/12/21 11:53:37;;;;;;;16.83;7.28;;;3.70;99.90;;;;;;5011444;28;20021;-91
2021/12/21 11:56:06;;;;;;;14.93;7.80;;;3.80;99.90;;;;;;5006743;28;20041;-90
2021/12/21 11:58:40;;;;;;;16.53;7.30;;;3.80;99.90;;;;;;5008929;28;20118;-91
2021/12/21 12:01:16;;;;;;;16.63;7.77;;;3.80;99.90;;;;;;5019704;28;20010;-90
2021/12/21 12:04:05;;;;;;;14.27;7.47;;;3.80;99.90;;;;;;5003587;28;20604;-90
2021/12/21 12:06:48;;;;;;;14.82;7.50;;;3.90;99.90;;;;;;5002581;28;20599;-90
2021/12/21 12:09:27;;;;;;;17.60;7.30;;;3.80;99.90;;;;;;5003039;28;20048;-91
2021/12/21 12:12:09;;;;;;;13.40;6.60;;;4.00;99.90;;;;;;5004156;28;20033;-91
2021/12/21 12:14:37;;;;;;;15.77;7.17;;;3.90;99.90;;;;;;5019880;28;20349;-91
2021/12/21 12:17:17;;;;;;;13.83;6.60;;;3.90;99.90;;;;;;5022029;28;20068;-90
2021/12/21 12:20:05;;;;;;;13.87;7.37;;;4.00;99.90;;;;;;5003375;28;20397;-90
2021/12/21 12:22:46;;;;;;;16.40;6.30;;;4.00;99.90;;;;;;5021252;28;20026;-90
2021/12/21 12:25:26;;;;;;;13.70;6.33;;;4.00;99.90;;;;;;5003321;28;20013;-90
2021/12/21 12:27:52;;;;;;;;;;;4.00;99.90;;;;;;5003611;28;20029;-91
2021/12/21 12:30:23;;;;;;;12.83;6.20;;;4.10;99.90;;;;;;5019595;28;19908;-91
2021/12/21 12:32:55;;;;;;;11.53;5.67;;;4.10;99.90;;;;;;5002696;28;20451;-90
2021/12/21 12:35:25;;;;;;;16.83;7.00;;;4.10;99.90;;;;;;5019662;28;20189;-90
2021/12/21 12:38:02;;;;;;;;;;;4.10;99.90;;;;;;5027238;28;20020;-91
2021/12/21 12:40:40;;;;;;;12.97;6.20;;;4.20;99.90;;;;;;5000157;28;20374;-90
2021/12/21 12:43:18;;;;;;;15.83;6.47;;;4.20;99.90;;;;;;5004566;28;20042;-90
2021/12/21 12:45:53;;;;;;;16.27;6.53;;;4.20;99.90;;;;;;5007477;28;20113;-91
2021/12/21 12:48:32;;;;;;;15.53;6.43;;;4.20;99.90;;;;;;5007292;28;20033;-90
2021/12/21 12:51:04;;;;;;;13.97;6.43;;;4.20;99.90;;;;;;5026387;28;20089;-90
2021/12/21 12:53:43;;;;;;;15.07;6.40;;;4.20;99.90;;;;;;5019767;28;20030;-91
2021/12/21 12:56:12;;;;;;;15.00;6.90;;;4.20;99.90;;;;;;5009039;28;20120;-91
2021/12/21 12:58:49;;;;;;;;;;;4.20;99.90;;;;;;5024222;28;20025;-91
2021/12/21 13:01:21;;;;;;;13.10;6.43;;;4.20;99.90;;;;;;5007707;28;19916;-91
2021/12/21 13:03:47;;;;;;;18.87;6.90;;;4.30;99.90;;;;;;5007095;28;20176;-90
2021/12/21 13:06:17;;;;;;;13.33;6.80;;;4.20;99.90;;;;;;5006735;28;20040;-90
2021/12/21 13:08:43;;;;;;;;;;;4.20;99.90;;;;;;5024069;28;20041;-90
2021/12/21 13:11:10;;;;;;;15.90;7.00;;;4.20;99.90;;;;;;5006614;28;20335;-90
2021/12/21 13:13:41;;;;;;;14.63;6.60;;;4.30;99.90;;;;;;5006244;28;20034;-90
2021/12/21 13:16:10;;;;;;;15.80;8.53;;;4.30;99.90;;;;;;5003330;28;20407;-91
2021/12/21 13:18:51;;;;;;;17.25;6.75;;;4.30;99.90;;;;;;5006842;28;20025;-90
2021/12/21 13:21:22;;;;;;;13.73;7.40;;;4.30;99.90;;;;;;5000211;28;20056;-91
2021/12/21 13:23:51;;;;;;;14.93;7.53;;;4.30;99.90;;;;;;4998518;28;20060;-90
2021/12/21 13:26:19;;;;;;;15.23;7.60;;;4.30;99.90;;;;;;5015533;28;20546;-90
2021/12/21 13:28:52;;;;;;;17.00;7.57;;;4.30;99.90;;;;;;5016973;28;20358;-90
2021/12/21 13:31:21;;;;;;;18.50;9.00;;;4.40;99.90;;;;;;5005104;28;20366;-90
2021/12/21 13:33:54;;;;;;;21.13;9.10;;;4.30;99.90;;;;;;5005247;28;20029;-90
2021/12/21 13:36:32;;;;;;;22.10;9.13;;;4.30;99.90;;;;;;5005373;28;20044;-90
2021/12/21 13:38:59;;;;;;;18.30;8.93;;;4.30;99.90;;;;;;5004851;28;20026;-90
2021/12/21 13:41:25;;;;;;;18.03;9.17;;;4.30;99.90;;;;;;5021164;28;20029;-90
2021/12/21 13:44:00;;;;;;;20.90;9.17;;;4.30;99.90;;;;;;5005081;28;20022;-90
2021/12/21 13:46:33;;;;;;;26.07;11.10;;;4.30;99.90;;;;;;5004707;28;20036;-90
2021/12/21 13:49:00;;;;;;;20.53;9.63;;;4.30;99.90;;;;;;5005191;28;20487;-90
2021/12/21 13:51:26;;;;;;;21.27;10.07;;;4.30;99.90;;;;;;5005526;28;20057;-90
2021/12/21 13:53:55;;;;;;;21.17;10.37;;;4.30;99.90;;;;;;5005676;28;20033;-90
2021/12/21 13:56:30;;;;;;;27.95;11.15;;;4.30;99.90;;;;;;5021825;28;20416;-90
2021/12/21 13:58:57;;;;;;;23.20;11.10;;;4.30;99.90;;;;;;5005490;28;20034;-90
2021/12/21 14:01:26;;;;;;;22.73;11.07;;;4.30;99.90;;;;;;5004735;28;20033;-90
2021/12/21 14:03:56;;;;;;;;;;;4.30;99.90;;;;;;5021667;28;20033;-90